Asheboro, NC

11:54 AM EST on December 29, 2014 (GMT -0500)
KNCASHEB5 | Change Station
CLOSE
Current Station
Personal Weather Station
Location: Asheboro, NC
Elevation: 780 ft
Nearby Weather Stations

Elev 780 ft 35.63 °N, 79.76 °W | Updated 15 minutes ago

Overcast
Overcast
51.9 °F
Feels Like 51.9 °F
N
1.0
Wind Variable Wind from East

Today
High -- | Low -- °F
--% Chance of Precip.
Yesterday
High -- | Low -- °F
Precip. -- in
7:28 AM 5:14 PM
First Quarter, 60% visible
Pressure 30.12 in
Visibility 10.0 miles
Clouds Scattered Clouds 800 ft
Mostly Cloudy 1400 ft
Overcast 2600 ft
Dew Point 51 °F
Humidity 97%
Rainfall 0.00 in
Snow Depth Not available.
UV 1.1 out of 12
Pollen .30 out of 12
Air Quality Not available.
Flu Activity Not available.
METAR KHBI 291635Z AUTO 09003KT 10SM SCT008 BKN014 OVC026 11/11 A3012 RMK AO2 T01140108

More Conditions Fewer Conditions

Pressure 30.12 in
Visibility 10.0 miles
Clouds Scattered Clouds 800 ft
Mostly Cloudy 1400 ft
Overcast 2600 ft
Dew Point 51 °F
Humidity 97%
Rainfall 0.00 in
Snow Depth Not available.
UV 1.1 out of 12
Pollen .30 out of 12
Air Quality Not available.
Flu Activity Not available.
METAR KHBI 291635Z AUTO 09003KT 10SM SCT008 BKN014 OVC026 11/11 A3012 RMK AO2 T01140108

More Conditions Fewer Conditions

10-Day Weather Forecast

Almanac

Astronomy

Dec. 29, 2014 Rise Set
Actual Time
Civil Twilight
Nautical Twilight
Astronomical Twilight
Moon
Length of Visible Light
Length of Day
Tomorrow will be .
, % of the Moon is Illuminated

Today's Extremes

State Highs State Lows

Community

WunderPhotos

Upload Photos

1,781,648 photos uploaded!

WunderBlogs® & News

Nearby

Air Quality

  Air Quality AQ Index Pollutant
Not available.

Snow Depth

Station Depth Elevation

Earthquake Activity

City Distance Mag. Time & Date
Minimum magnitude displayed is 2.5.

Coastal Water Temperatures

Place Temperature

Nearby Weather Stations